Date,TemperatureHighF,TemperatureAvgF,TemperatureLowF,DewpointHighF,DewpointAvgF,DewpointLowF,HumidityHigh,HumidityAvg,HumidityLow,PressureMaxIn,PressureMinIn,WindSpeedMaxMPH,WindSpeedAvgMPH,GustSpeedMaxMPH,PrecipitationSumIn
2013-1-1,32.0,28.1,0.0,31.0,25.5,-99.9,97,93,90,30.20,30.06,1,0,4,0.01
2013-1-2,25.0,18.7,11.0,20.0,13.8,9.0,93,82,61,30.30,30.19,1,0,4,0.00
2013-1-3,33.0,24.2,18.0,26.0,18.0,9.0,87,77,66,30.38,30.25,3,1,9,0.01
2013-1-4,32.0,28.4,25.0,26.0,23.2,22.0,90,81,69,30.41,30.35,5,2,12,0.01
2013-1-5,39.0,31.3,25.0,31.0,26.4,22.0,93,83,62,30.37,30.17,4,1,11,0.11
2013-1-6,37.0,32.1,26.0,33.0,28.1,22.0,89,85,79,30.40,30.05,5,2,15,0.07
2013-1-7,38.0,29.4,22.0,29.0,24.1,-99.9,94,83,68,30.48,30.25,5,1,13,0.06
2013-1-8,48.0,38.0,31.0,34.0,28.0,-99.9,85,72,52,30.30,30.21,3,1,11,0.05
2013-1-9,52.0,45.5,41.0,44.0,36.6,-99.9,96,79,67,30.50,30.21,5,1,14,0.10
2013-1-10,47.0,40.8,36.0,46.0,37.7,33.0,97,89,75,30.50,30.01,10,5,18,0.15
2013-1-11,59.0,54.7,47.0,54.0,51.1,46.0,97,88,76,30.01,29.85,7,3,18,0.73
2013-1-12,65.0,58.7,56.0,63.0,55.4,50.0,97,89,76,29.97,29.65,6,2,17,1.31
2013-1-13,65.0,38.3,24.0,63.0,37.1,22.0,97,96,91,30.22,29.60,7,2,18,2.13
2013-1-14,24.0,21.6,17.0,22.0,19.0,15.0,93,90,84,30.47,30.22,2,0,7,0.01
2013-1-15,33.0,25.6,18.0,27.0,20.7,-99.9,94,85,68,30.42,30.12,4,0,11,0.00
2013-1-16,34.0,30.2,28.0,27.0,24.2,-99.9,91,81,62,30.13,30.02,3,1,9,2.65
2013-1-17,41.0,33.4,26.0,34.0,25.4,-99.9,86,77,59,30.44,30.12,4,1,12,0.00
2013-1-18,41.0,31.5,22.0,29.0,22.7,18.0,86,71,48,30.53,30.22,6,2,16,0.00
2013-1-19,51.0,42.9,38.0,40.0,30.8,26.0,78,62,55,30.22,29.95,6,5,19,0.00
2013-1-20,45.0,31.8,24.0,40.0,18.4,10.0,82,58,39,30.27,29.98,6,2,16,0.00
2013-1-21,24.0,18.2,12.0,18.0,9.4,1.0,83,69,50,30.33,30.19,5,2,15,0.00
2013-1-22,17.0,11.3,5.0,5.0,1.2,-1.0,78,63,51,30.47,30.33,4,1,11,0.00
2013-1-23,32.0,21.2,13.0,20.0,11.1,3.0,76,65,51,30.43,30.16,4,1,10,0.00
2013-1-24,27.0,21.2,14.0,20.0,8.7,3.0,83,60,39,30.61,30.19,5,2,17,0.00
2013-1-25,29.0,24.2,20.0,22.0,15.7,5.0,86,71,48,30.41,30.10,7,2,17,0.00
2013-1-26,35.0,27.1,19.0,23.0,19.3,16.0,87,73,53,30.43,30.15,5,1,10,0.01
2013-1-27,41.0,30.2,23.0,39.0,25.5,18.0,97,83,68,30.41,30.10,6,4,15,0.20
2013-1-28,57.0,51.2,41.0,56.0,49.1,40.0,97,93,80,30.13,30.00,6,4,20,0.34
2013-1-29,66.0,59.6,55.0,60.0,56.2,53.0,95,89,82,30.00,29.44,10,5,25,0.01
2013-1-30,68.0,46.6,27.0,62.0,43.2,-99.9,97,91,79,29.68,29.27,10,4,30,0.67
2013-1-31,30.0,24.0,11.0,24.0,18.5,6.0,93,79,67,30.19,29.68,8,4,25,0.01
2013-2-1,17.0,10.7,5.0,10.0,5.4,1.0,85,79,69,30.49,30.19,5,2,15,0.00
2013-2-2,29.0,23.9,14.0,26.0,20.5,10.0,94,87,75,30.35,30.06,6,2,15,0.01
2013-2-3,27.0,21.0,16.0,24.0,18.0,12.0,96,88,79,30.17,30.01,4,1,10,0.01
2013-2-4,40.0,29.9,18.0,34.0,25.6,16.0,95,84,65,30.15,29.83,6,2,13,0.08
2013-2-5,40.0,33.0,26.0,35.0,29.5,24.0,95,87,78,30.06,29.88,4,1,12,0.01
2013-2-6,37.0,32.5,30.0,33.0,28.6,26.0,89,85,78,30.28,30.06,5,1,11,0.01
2013-2-7,62.0,44.3,31.0,48.0,36.3,28.0,95,76,45,30.18,29.81,5,2,11,0.04
2013-2-8,47.0,33.9,31.0,46.0,30.9,26.0,96,89,80,30.37,29.83,4,2,14,0.04
2013-2-9,43.0,34.5,26.0,31.0,26.8,23.0,89,74,59,30.42,30.27,6,2,14,1.84
2013-2-10,52.0,45.7,37.0,50.0,36.7,-99.9,95,76,60,30.27,29.73,9,4,23,2.40
2013-2-11,53.0,43.2,37.0,50.0,34.5,28.0,94,72,60,30.08,29.73,8,5,22,0.00
2013-2-12,45.0,36.9,28.0,33.0,29.1,25.0,89,74,56,30.15,29.92,3,1,9,0.00
2013-2-13,35.0,30.7,30.0,30.0,27.5,27.0,90,87,81,29.92,29.84,1,0,5,2.50
2013-2-14,51.0,38.7,30.0,40.0,32.7,27.0,94,79,62,30.03,29.84,6,2,14,2.50
2013-2-15,37.0,32.8,26.0,31.0,25.6,18.0,89,75,60,30.20,29.99,4,1,12,3.48
2013-2-16,29.0,23.8,19.0,19.0,15.7,12.0,89,72,52,30.18,30.13,5,1,11,0.00
2013-2-17,35.0,25.1,14.0,17.0,14.2,9.0,90,65,43,30.28,30.16,3,0,10,0.00
2013-2-18,58.0,42.0,29.0,44.0,30.6,-99.9,93,67,45,30.17,29.63,10,5,29,0.40
2013-2-19,47.0,28.9,23.0,45.0,21.9,-99.9,95,79,70,30.20,29.63,7,5,20,0.53
2013-2-20,27.0,21.2,14.0,16.0,13.1,10.0,83,71,58,30.38,30.20,4,1,14,0.01
2013-2-21,32.0,24.5,17.0,29.0,19.9,-99.9,96,85,70,30.36,29.98,11,3,24,0.01
2013-2-22,37.0,33.6,0.0,34.0,30.6,-99.9,97,92,83,30.02,29.85,7,2,21,0.09
2013-2-23,38.0,30.7,24.0,28.0,21.8,-99.9,89,76,60,30.03,29.95,3,1,9,0.07
2013-2-24,44.0,32.1,21.0,29.0,24.7,20.0,95,76,55,30.16,30.00,2,0,6,0.01
2013-2-25,48.0,37.0,27.0,29.0,27.1,24.0,87,69,47,30.15,29.82,11,4,24,0.00
2013-2-26,44.0,39.2,34.0,43.0,35.9,27.0,98,89,62,29.82,29.37,11,4,25,1.24
2013-2-27,40.0,33.8,32.0,38.0,32.5,30.0,97,95,90,29.76,29.52,6,4,17,0.08
2013-2-28,36.0,33.0,31.0,34.0,31.7,29.0,96,95,91,30.02,29.75,4,2,10,0.05
2013-3-1,34.0,31.8,31.0,32.0,29.9,29.0,97,93,86,30.08,29.98,2,0,7,0.04
2013-3-2,31.0,28.8,27.0,29.0,25.3,22.0,94,87,73,30.15,30.06,3,1,8,0.01
2013-3-3,36.0,28.2,21.0,25.0,20.6,16.0,94,75,48,30.16,30.09,2,0,8,0.01
2013-3-4,39.0,32.4,23.0,27.0,23.0,18.0,92,69,56,30.14,29.94,9,4,19,0.01
2013-3-5,39.0,35.1,28.0,36.0,30.9,27.0,97,86,64,29.94,29.66,7,4,16,0.13
2013-3-6,31.0,29.4,28.0,29.0,28.1,27.0,97,95,93,30.32,29.79,3,1,11,0.02
2013-3-7,35.0,31.2,28.0,32.0,28.4,27.0,96,90,79,30.42,30.31,1,0,6,0.05
2013-3-8,47.0,36.6,27.0,32.0,28.3,24.0,91,73,50,30.49,30.36,6,1,13,0.01
2013-3-9,58.0,45.0,33.0,38.0,33.0,27.0,83,64,45,30.36,29.98,6,4,17,0.00
2013-3-10,67.0,59.3,53.0,47.0,40.2,36.0,65,50,36,29.98,29.72,9,4,26,0.02
2013-3-11,59.0,45.0,34.0,51.0,42.0,31.0,96,89,66,29.90,29.62,6,4,19,0.17
2013-3-12,44.0,36.0,32.0,32.0,29.1,26.0,92,77,53,30.08,29.91,6,3,16,0.01
2013-3-13,33.0,28.7,25.0,31.0,22.5,19.0,93,78,66,30.38,30.07,5,2,16,0.00
2013-3-14,41.0,30.1,23.0,31.0,24.2,20.0,96,80,47,30.39,30.22,5,1,10,0.00
2013-3-15,56.0,41.6,30.0,44.0,35.7,29.0,96,81,59,30.21,29.71,6,1,13,0.06
2013-3-16,60.0,50.7,37.0,52.0,43.5,33.0,85,76,69,30.01,29.61,6,2,15,0.01
2013-3-17,38.0,34.9,33.0,33.0,31.0,29.0,96,85,78,30.11,29.92,8,3,23,0.28
2013-3-18,44.0,38.2,33.0,43.0,36.7,32.0,98,95,90,29.92,29.65,13,5,30,1.21
2013-3-19,42.0,34.2,26.0,35.0,23.5,20.0,94,66,41,30.17,29.87,7,4,17,0.01
2013-3-20,35.0,29.5,25.0,23.0,17.6,11.0,73,61,52,30.16,30.06,5,2,14,0.00
2013-3-21,36.0,25.6,18.0,16.0,13.2,11.0,88,61,41,30.10,30.02,3,1,10,0.00
2013-3-22,47.0,34.1,24.0,24.0,17.8,13.0,65,52,33,30.10,30.00,3,0,10,0.00
2013-3-23,54.0,42.6,36.0,29.0,25.1,22.0,63,51,34,30.06,29.86,6,1,14,0.00
2013-3-24,41.0,35.8,30.0,34.0,30.1,26.0,97,81,57,29.86,29.40,9,2,27,0.07
2013-3-25,32.0,30.1,28.0,31.0,29.1,27.0,97,96,94,30.05,29.48,1,0,7,0.02
2013-3-26,40.0,32.8,28.0,33.0,28.2,25.0,97,84,63,30.30,30.05,3,1,9,0.34
2013-3-27,43.0,35.3,28.0,30.0,26.6,25.0,90,72,52,30.37,30.30,3,1,9,0.12
2013-3-28,52.0,39.6,29.0,33.0,27.5,24.0,81,63,45,30.40,30.29,2,0,8,0.01
2013-3-29,57.0,46.2,36.0,35.0,31.0,28.0,75,57,36,30.33,30.20,5,1,10,0.00
2013-3-30,62.0,50.2,40.0,40.0,35.6,31.0,75,58,44,30.23,29.92,5,2,13,0.00
2013-3-31,59.0,50.2,45.0,46.0,43.5,-99.9,97,82,58,29.92,29.80,6,1,14,0.05
2013-4-1,52.0,42.1,34.0,44.0,27.5,20.0,87,58,37,30.16,29.84,5,2,11,0.01
2013-4-2,46.0,36.5,27.0,23.0,19.3,16.0,77,52,30,30.31,30.16,3,1,8,0.00
2013-4-3,50.0,40.4,30.0,23.0,18.2,14.0,53,41,29,30.41,30.28,6,2,15,0.00
2013-4-4,61.0,46.2,34.0,26.0,22.1,19.0,58,40,21,30.32,30.00,6,1,13,0.00
2013-4-5,61.0,51.4,44.0,38.0,28.1,21.0,50,41,32,30.12,30.00,3,0,7,0.00
2013-4-6,72.0,56.5,43.0,43.0,35.5,28.0,62,46,32,30.11,29.83,7,4,23,0.00
2013-4-7,73.0,64.6,58.0,55.0,47.3,40.0,88,55,42,29.95,29.81,6,3,18,0.13
2013-4-8,71.0,62.6,55.0,59.0,55.3,52.0,96,78,61,29.95,29.82,6,2,18,0.20
2013-4-9,79.0,69.0,59.0,63.0,58.6,54.0,84,70,50,29.97,29.86,6,3,21,0.00
2013-4-10,81.0,73.2,67.0,67.0,63.7,61.0,88,73,59,29.89,29.68,6,3,18,0.11
2013-4-11,75.0,61.1,48.0,62.0,58.0,46.0,97,90,59,29.74,29.53,6,3,17,0.76
2013-4-12,47.0,41.9,36.0,46.0,35.8,32.0,97,79,64,29.95,29.59,6,3,15,0.09
2013-4-13,55.0,46.0,37.0,38.0,35.9,34.0,90,69,50,30.02,29.95,7,2,17,0.00
2013-4-14,75.0,58.3,43.0,49.0,42.5,36.0,82,58,34,30.00,29.78,6,3,21,0.00
2013-4-15,73.0,62.9,57.0,59.0,53.5,47.0,81,72,58,29.94,29.83,7,3,20,0.00
2013-4-16,72.0,62.4,53.0,65.0,58.1,52.0,98,86,78,30.11,29.87,6,2,19,0.74
2013-4-17,79.0,60.5,52.0,72.0,58.9,52.0,100,95,75,30.12,29.86,11,2,25,0.96
2013-4-18,78.0,69.7,62.0,67.0,63.7,56.0,99,82,58,29.86,29.54,7,3,23,0.43
2013-4-19,57.0,40.6,38.0,56.0,35.9,31.0,98,84,69,30.01,29.53,6,4,20,0.74
2013-4-20,50.0,41.3,33.0,36.0,31.0,28.0,92,69,44,30.39,30.01,3,1,11,0.01
2013-4-21,60.0,46.3,34.0,36.0,31.1,28.0,78,57,34,30.50,30.33,7,2,18,0.00
2013-4-22,73.0,56.7,42.0,45.0,37.4,31.0,66,50,32,30.35,30.07,5,2,11,0.00
2013-4-23,66.0,59.0,53.0,58.0,50.2,42.0,95,73,54,30.09,29.76,4,2,18,0.10
2013-4-24,66.0,44.5,38.0,58.0,41.1,34.0,98,88,69,30.24,29.76,4,1,15,0.40
2013-4-25,56.0,45.9,36.0,43.0,35.4,32.0,90,69,41,30.38,30.24,6,2,13,0.01
2013-4-26,64.0,52.8,39.0,43.0,37.4,32.0,89,57,42,30.43,30.30,5,1,13,0.00
2013-4-27,60.0,53.8,47.0,53.0,46.0,38.0,97,75,54,30.33,29.96,6,2,15,0.04
2013-4-28,59.0,55.6,54.0,58.0,54.9,53.0,100,97,88,29.96,29.83,4,1,11,0.18
2013-4-29,71.0,59.9,53.0,58.0,54.5,52.0,100,84,56,29.99,29.89,3,0,11,0.01
2013-4-30,83.0,67.4,51.0,63.0,55.9,50.0,95,69,48,30.00,29.90,5,2,12,0.00
2013-5-1,84.0,72.8,61.0,60.0,56.3,53.0,78,58,41,30.10,30.00,3,1,11,0.00
2013-5-2,79.0,70.5,63.0,62.0,58.3,55.0,81,66,52,30.12,30.00,5,2,14,0.00
2013-5-3,75.0,66.9,60.0,62.0,58.4,55.0,96,75,52,30.01,29.83,7,2,19,0.08
2013-5-4,61.0,56.8,52.0,59.0,53.5,49.0,99,89,70,29.99,29.86,5,2,18,0.35
2013-5-5,54.0,52.1,51.0,54.0,51.9,50.0,100,99,96,29.98,29.88,6,2,17,0.89
2013-5-6,65.0,57.7,51.0,59.0,55.1,51.0,100,91,77,29.94,29.84,4,0,10,0.13
2013-5-7,72.0,63.4,56.0,60.0,56.6,54.0,95,80,59,29.97,29.91,3,0,11,0.01
2013-5-8,77.0,67.6,59.0,61.0,57.2,55.0,91,71,51,30.00,29.92,2,0,7,0.00
2013-5-9,78.0,66.4,60.0,66.0,59.2,56.0,97,80,47,29.99,29.86,3,0,16,0.51
2013-5-10,66.0,62.6,56.0,63.0,59.1,-99.9,98,93,89,29.88,29.79,2,0,9,0.50
2013-5-11,61.0,52.0,46.0,56.0,46.7,35.0,97,84,47,30.03,29.88,3,0,8,0.14
2013-5-12,56.0,47.8,39.0,39.0,33.3,-99.9,85,60,42,30.15,30.04,2,0,8,0.01
2013-5-13,64.0,53.6,42.0,41.0,35.9,33.0,81,53,34,30.21,30.11,2,0,7,0.00
2013-5-14,82.0,66.9,51.0,63.0,50.0,36.0,66,55,47,30.12,29.81,4,1,14,0.00
2013-5-15,85.0,75.6,68.0,65.0,61.5,59.0,73,62,47,29.89,29.80,4,2,12,0.00
2013-5-16,73.0,63.2,64.0,66.0,41.8,-99.9,96,82,68,29.94,29.82,4,1,13,0.01
2013-5-17,79.0,67.4,62.0,68.0,59.0,-99.9,97,85,49,30.00,29.94,4,0,12,0.01
2013-5-18,78.0,69.0,63.0,68.0,64.7,62.0,97,86,69,30.00,29.92,4,0,13,0.01
2013-5-19,87.0,74.8,62.0,72.0,68.1,61.0,100,81,58,29.94,29.81,3,0,8,0.00
2013-5-20,84.0,76.0,68.0,72.0,70.2,67.0,98,83,64,29.91,29.79,3,1,15,0.00
2013-5-21,80.0,71.7,62.0,69.0,65.5,61.0,99,82,63,29.89,29.74,5,1,16,0.29
2013-5-22,73.0,67.8,64.0,65.0,63.1,59.0,96,85,70,29.76,29.70,4,1,14,0.02
2013-5-23,65.0,58.7,49.0,61.0,56.0,46.0,99,91,79,30.14,29.76,1,0,8,0.04
2013-5-24,66.0,53.4,42.0,49.0,44.0,40.0,98,74,45,30.35,30.14,1,0,7,0.01
2013-5-25,63.0,55.7,48.0,54.0,46.5,38.0,95,72,52,30.37,30.20,2,0,6,0.05
2013-5-26,67.0,57.1,49.0,59.0,53.3,48.0,97,88,70,30.27,30.12,5,1,13,0.15
2013-5-27,81.0,68.2,56.0,68.0,61.1,55.0,98,80,57,30.13,29.88,4,2,15,0.55
2013-5-28,81.0,72.7,63.0,70.0,66.1,62.0,97,81,65,29.95,29.84,5,1,17,0.31
2013-5-29,86.0,76.7,70.0,68.0,63.9,59.0,76,65,49,30.01,29.92,3,1,12,0.00
2013-5-30,84.0,77.1,71.0,72.0,68.1,65.0,84,74,65,30.02,29.90,4,2,16,0.00
2013-5-31,76.0,71.2,63.0,71.0,68.0,62.0,100,90,79,29.97,29.84,3,1,14,0.88
2013-6-1,74.0,68.1,63.0,71.0,66.1,63.0,100,93,86,29.89,29.73,6,1,20,0.45
2013-6-2,67.0,64.4,61.0,65.0,61.6,60.0,99,90,83,29.89,29.81,1,0,7,0.01
2013-6-3,68.0,63.6,54.0,61.0,57.2,49.0,87,80,63,30.06,29.89,0,0,4,0.01
2013-6-4,75.0,61.5,51.0,60.0,49.8,-99.9,88,71,57,30.11,30.01,4,1,11,0.00
2013-6-5,81.0,69.3,59.0,65.0,57.8,50.0,76,67,51,30.04,29.83,3,0,9,0.00
2013-6-6,79.0,70.8,62.0,69.0,63.2,60.0,97,78,58,29.83,29.73,0,0,5,0.02
2013-6-7,76.0,66.5,62.0,65.0,62.3,60.0,98,87,57,29.85,29.76,3,0,8,0.01
2013-6-8,80.0,68.9,60.0,66.0,61.7,59.0,95,79,55,29.97,29.84,2,0,7,0.00
2013-6-9,81.0,71.0,64.0,68.0,64.8,61.0,97,82,51,29.99,29.79,3,0,9,0.23
2013-6-10,74.0,68.4,65.0,68.0,65.5,64.0,99,91,77,29.86,29.74,2,0,9,0.25
2013-6-11,84.0,72.6,62.0,71.0,66.1,61.0,97,81,56,29.96,29.85,1,0,7,0.01
2013-6-12,89.0,81.0,74.0,78.0,74.0,69.0,95,80,63,29.90,29.67,3,0,14,0.00
2013-6-13,83.0,74.8,65.0,73.0,65.7,56.0,87,74,54,29.94,29.61,3,1,13,0.00
2013-6-14,80.0,68.7,56.0,65.0,60.2,54.0,95,76,53,30.04,29.91,1,0,7,0.00
2013-6-15,82.0,73.9,63.0,67.0,63.4,60.0,97,71,52,30.07,29.91,4,0,13,0.00
2013-6-16,75.0,69.4,66.0,70.0,66.6,62.0,99,91,67,30.00,29.92,2,0,8,0.14
2013-6-17,86.0,74.0,65.0,75.0,70.3,64.0,100,89,64,29.94,29.83,6,0,19,0.47
2013-6-18,83.0,69.3,63.0,72.0,66.1,62.0,100,90,67,29.95,29.84,5,0,13,0.49
2013-6-19,82.0,71.0,62.0,68.0,64.7,62.0,99,82,59,30.06,29.94,4,1,11,0.04
2013-6-20,86.0,73.7,66.0,70.0,65.3,62.0,90,76,52,30.15,30.06,3,0,12,0.01
2013-6-22,86.0,75.8,69.0,75.0,70.8,68.0,98,86,67,30.10,29.98,3,0,9,0.02
2013-6-23,83.0,73.5,65.0,74.0,69.7,65.0,100,89,70,30.08,29.99,4,0,11,0.05
2013-6-24,80.0,73.7,69.0,74.0,70.5,68.0,96,90,81,30.10,30.00,2,0,6,0.02
2013-6-25,87.0,77.2,68.0,78.0,72.7,66.0,97,86,71,30.00,29.85,2,0,7,0.01
2013-6-26,79.0,68.3,65.0,75.0,67.6,65.0,100,98,89,29.95,29.71,3,0,11,1.41
2013-6-27,85.0,74.3,66.0,77.0,70.8,66.0,100,90,70,29.77,29.72,0,0,4,0.01
2013-6-28,83.0,75.6,69.0,72.0,66.4,63.0,95,74,57,29.72,29.58,1,0,6,0.01
2013-6-29,74.0,67.2,63.0,70.0,65.0,62.0,100,93,77,29.64,29.56,0,0,5,0.28
2013-6-30,73.0,65.7,63.0,70.0,65.3,63.0,100,98,85,29.81,29.63,0,0,10,0.34
2013-7-1,70.0,65.6,64.0,68.0,64.8,62.0,100,97,91,29.88,29.80,0,0,8,0.22
2013-7-2,79.0,67.3,63.0,70.0,65.9,63.0,100,95,67,29.97,29.88,4,0,10,0.63
2013-7-3,78.0,69.2,62.0,69.0,65.9,62.0,100,90,70,30.07,29.96,2,0,7,0.62
2013-7-4,74.0,70.2,64.0,71.0,68.1,64.0,100,93,87,30.10,30.03,3,0,8,0.00
2013-7-5,81.0,70.2,64.0,72.0,67.7,64.0,100,92,71,30.10,30.02,2,0,9,0.00
2013-7-6,75.0,70.6,67.0,70.0,68.4,67.0,100,93,82,30.07,30.01,2,0,7,0.03
2013-7-7,84.0,73.1,65.0,72.0,68.4,65.0,100,86,64,30.07,30.00,1,0,8,0.01
2013-7-8,84.0,73.8,69.0,77.0,68.7,-99.9,95,88,73,30.10,30.00,1,0,7,0.00
2013-7-9,87.0,79.8,75.0,78.0,74.8,72.0,92,85,73,30.04,29.92,1,0,6,0.01
2013-7-10,81.0,75.1,67.0,77.0,68.9,-99.9,99,87,81,29.94,29.79,0,0,7,0.29
2013-7-11,77.0,71.2,64.0,72.0,64.3,60.0,98,80,61,30.00,29.89,0,0,8,0.05
2013-7-12,81.0,68.3,61.0,65.0,60.8,58.0,93,78,52,30.08,30.01,3,0,11,0.00
2013-7-13,82.0,73.3,63.0,70.0,65.3,60.0,95,77,57,30.07,30.01,6,1,14,0.02
2013-7-14,90.0,77.8,68.0,75.0,70.9,66.0,96,81,58,30.15,30.06,3,1,9,0.02
2013-7-15,88.0,77.9,72.0,76.0,73.1,71.0,99,86,64,30.24,30.15,2,0,11,0.01
2013-7-16,90.0,81.4,75.0,78.0,74.0,71.0,92,79,62,30.29,30.22,0,0,4,0.00
2013-7-17,90.0,80.9,76.0,78.0,74.3,72.0,89,81,63,30.29,30.14,0,0,2,0.00
2013-7-18,91.0,82.9,76.0,78.0,74.9,72.0,89,78,60,30.17,29.99,0,0,6,0.00
2013-7-19,87.0,80.6,74.0,78.0,74.9,73.0,98,84,68,29.99,29.85,1,0,7,0.00
2013-7-20,87.0,74.2,67.0,77.0,70.9,67.0,100,90,71,29.92,29.82,2,0,13,0.51
2013-7-21,85.0,74.3,65.0,74.0,70.0,65.0,100,87,65,29.94,29.84,0,0,5,0.21
2013-7-22,79.0,70.9,68.0,74.0,69.9,68.0,100,97,82,29.89,29.75,2,0,10,0.21
2013-7-23,84.0,75.7,70.0,78.0,73.2,69.0,100,92,79,29.82,29.72,1,0,5,0.60
2013-7-24,76.0,59.2,57.0,64.0,41.7,-99.9,97,71,59,30.01,29.83,2,0,8,0.14
2013-7-25,77.0,64.9,57.0,63.0,58.5,55.0,94,81,58,30.07,29.97,0,0,6,0.00
2013-7-26,77.0,68.1,62.0,68.0,60.3,-99.9,96,79,61,30.06,29.93,0,0,6,0.00
2013-7-27,74.0,67.9,59.0,65.0,61.1,53.0,100,80,63,29.93,29.85,1,0,7,0.21
2013-7-28,71.0,61.6,52.0,60.0,53.9,50.0,96,77,55,30.04,29.92,1,0,7,0.01
2013-7-29,77.0,65.5,59.0,65.0,58.0,55.0,91,78,58,30.14,30.04,0,0,4,0.00
2013-7-30,79.0,67.1,65.0,68.0,63.9,58.0,99,90,68,30.17,30.06,2,0,10,0.09
2013-7-31,75.0,68.1,64.0,72.0,67.2,64.0,100,97,90,30.07,29.92,1,0,7,0.01
2013-8-1,78.0,71.1,65.0,70.0,66.5,62.0,100,87,59,30.00,29.93,0,0,4,0.04
2013-8-2,78.0,71.1,64.0,70.0,65.3,57.0,94,82,69,29.98,29.92,1,0,7,0.00
2013-8-3,81.0,74.6,69.0,74.0,69.5,65.0,95,84,72,30.02,29.91,0,0,4,0.00
2013-8-4,78.0,68.8,60.0,65.0,60.0,55.0,90,75,51,30.13,30.02,3,0,9,0.00
2013-8-5,81.0,70.3,61.0,67.0,62.0,57.0,98,77,52,30.09,29.90,3,0,9,0.00
2013-8-6,81.0,72.6,68.0,75.0,69.0,63.0,97,88,74,29.92,29.86,1,0,6,0.00
2013-8-7,81.0,75.2,70.0,76.0,73.3,70.0,100,94,82,29.89,29.83,1,0,6,0.00
2013-8-8,84.0,76.2,71.0,78.0,73.2,70.0,100,91,75,29.92,29.83,0,0,6,0.39
2013-8-9,82.0,73.8,70.0,75.0,71.5,69.0,100,93,71,30.00,29.87,0,0,4,0.01
2013-8-10,85.0,76.5,69.0,72.0,69.1,66.0,92,78,60,30.07,29.99,1,0,6,0.01
2013-8-21,88.0,75.8,67.0,74.0,70.5,67.0,100,85,58,30.12,30.02,1,0,7,0.35
2013-8-22,84.0,76.3,70.0,75.0,71.0,68.0,93,84,71,30.07,29.99,0,0,4,0.00
2013-8-23,84.0,75.4,68.0,72.0,68.6,67.0,98,81,60,30.09,30.01,1,0,8,0.00
2013-8-24,87.0,75.2,64.0,70.0,64.0,58.0,94,70,44,30.21,30.09,3,0,8,0.00
2013-8-25,89.0,78.0,67.0,69.0,58.8,-99.9,83,57,42,30.27,30.17,1,0,6,0.00
2013-8-26,86.0,77.8,69.0,76.0,72.0,66.0,98,83,68,30.20,30.04,0,0,5,0.00
2013-8-27,87.0,76.5,72.0,78.0,73.3,71.0,98,91,72,30.06,29.97,0,0,4,0.00
2013-8-29,90.0,79.2,72.0,76.0,72.7,69.0,100,82,56,29.99,29.92,2,0,7,0.00
2013-8-30,90.0,80.1,70.0,77.0,72.9,69.0,97,80,61,29.94,29.80,1,0,5,0.00
2013-8-31,93.0,80.3,67.0,79.0,74.4,66.0,99,84,63,29.82,29.68,3,0,13,1.32
2013-9-1,83.0,72.1,67.0,75.0,67.4,-99.9,100,90,77,29.84,29.69,2,0,8,0.13
2013-9-2,82.0,73.5,67.0,74.0,69.3,66.0,100,88,64,29.87,29.77,0,0,3,0.00
2013-9-3,75.0,66.8,59.0,66.0,60.0,56.0,94,80,59,30.03,29.87,0,0,8,0.00
2013-9-4,81.0,69.8,60.0,64.0,60.5,56.0,91,74,57,30.13,30.04,1,0,5,0.00
2013-10-18,64.0,52.9,45.0,51.0,47.0,44.0,99,82,58,30.01,29.92,2,0,9,0.01
2013-10-19,50.0,45.8,42.0,46.0,42.7,38.0,100,89,70,30.00,29.86,0,0,5,0.22
2013-10-20,62.0,49.6,41.0,47.0,40.0,-99.9,93,74,55,30.02,29.95,3,0,12,0.01
2013-10-21,61.0,51.7,45.0,51.0,45.5,37.0,91,80,68,29.99,29.90,1,0,8,0.00
2013-10-22,52.0,44.5,35.0,42.0,35.2,30.0,91,71,51,30.04,29.80,1,0,6,0.02
2013-10-23,45.0,41.1,37.0,44.0,36.7,33.0,98,85,68,30.08,29.75,1,0,6,0.01
2013-10-24,38.0,36.4,34.0,37.0,33.3,30.0,96,88,78,30.33,30.07,1,0,5,0.02
2013-12-9,30.0,25.2,21.0,30.0,22.8,17.0,100,90,76,30.28,30.04,4,1,10,0.00
2013-12-10,26.0,20.7,15.0,19.0,16.6,13.0,96,85,66,30.38,30.23,5,2,14,0.00
2013-12-11,31.0,23.7,14.0,26.0,19.6,10.0,97,84,77,30.58,30.36,4,2,11,0.00
2013-12-12,23.0,13.9,3.0,12.0,4.8,0.0,93,69,41,30.61,30.39,4,1,11,0.00
2013-12-13,39.0,29.6,22.0,32.0,21.5,12.0,98,73,55,30.39,30.12,5,2,12,0.01
2013-12-14,36.0,32.3,29.0,36.0,30.1,-99.9,100,97,97,30.10,29.74,5,2,13,0.25
2013-12-15,29.0,25.7,23.0,28.0,24.2,21.0,97,94,93,30.09,29.98,4,2,11,0.25